Time;durP1;ratioP1;P1;durP2;ratioP2;P2;SDS_P1;SDS_P2;PMS_P1;PMS_P2;Temp;Humidity;BMP_temperature;BMP_pressure;BME280_temperature;BME280_humidity;BME280_pressure;Samples;Min_cycle;Max_cycle;Signal;HPM_P1;HPM_P2
2023/05/19 00:02:07;;;;;;;;;;;;;;;;;;5096387;28;20405;-70
2023/05/19 00:04:34;;;;;;;;;;;;;;;;;;5114916;28;20005;-70
2023/05/19 00:07:00;;;;;;;;;;;;;;;;;;5114590;28;19963;-70
2023/05/19 00:09:26;;;;;;;;;;;;;;;;;;5114782;28;19955;-70
2023/05/19 00:11:52;;;;;;;;;;;;;;;;;;5114434;28;19959;-70
2023/05/19 00:14:18;;;;;;;;;;;;;;;;;;5114765;28;19970;-70
2023/05/19 00:16:44;;;;;;;;;;;;;;;;;;5114418;28;20024;-70
2023/05/19 00:19:10;;;;;;;;;;;;;;;;;;5114672;28;19986;-70
2023/05/19 00:21:39;;;;;;;;;;;;;;;;;;5114269;28;19976;-70
2023/05/19 00:24:05;;;;;;;;;;;;;;;;;;5115436;28;19955;-70
2023/05/19 00:26:32;;;;;;;;;;;;;;;;;;5114600;28;20004;-70
2023/05/19 00:28:58;;;;;;;;;;;;;;;;;;5114893;28;19955;-70
2023/05/19 00:31:23;;;;;;;;;;;;;;;;;;5114116;28;20321;-70
2023/05/19 00:33:50;;;;;;;;;;;;;;;;;;5114186;28;19962;-70
2023/05/19 00:36:17;;;;;;;;;;;;;;;;;;5114411;28;20003;-70
2023/05/19 00:38:43;;;;;;;;;;;;;;;;;;5095628;28;20087;-70
2023/05/19 00:41:09;;;;;;;;;;;;;;;;;;5113849;28;20085;-70
2023/05/19 00:43:35;;;;;;;;;;;;;;;;;;5114117;28;20038;-70
2023/05/19 00:46:01;;;;;;;;;;;;;;;;;;5114343;28;20063;-70
2023/05/19 00:48:27;;;;;;;;;;;;;;;;;;5114028;28;19955;-70
2023/05/19 00:50:53;;;;;;;;;;;;;;;;;;5114000;28;20000;-70
2023/05/19 00:53:19;;;;;;;;;;;;;;;;;;5114312;28;20405;-70
2023/05/19 00:55:45;;;;;;;;;;;;;;;;;;5114237;28;19954;-70
2023/05/19 00:58:11;;;;;;;;;;;;;;;;;;5113906;28;19962;-70
2023/05/19 01:00:38;;;;;;;;;;;;;;;;;;5114116;28;20089;-70
2023/05/19 01:03:09;;;;;;;;;;;;;;;;;;5114150;28;20324;-70
2023/05/19 01:05:35;;;;;;;;;;;;;;;;;;5116128;28;19977;-71
2023/05/19 01:08:01;;;;;;;;;;;;;;;;;;5118035;28;20456;-70
2023/05/19 01:10:27;;;;;;;;;;;;;;;;;;5118319;28;19955;-70
2023/05/19 01:12:53;;;;;;;;;;;;;;;;;;5117911;28;20424;-71
2023/05/19 01:15:19;;;;;;;;;;;;;;;;;;5117874;28;19969;-70
2023/05/19 01:17:45;;;;;;;;;;;;;;;;;;5117806;28;20493;-70
2023/05/19 01:20:11;;;;;;;;;;;;;;;;;;5117707;28;20143;-70
2023/05/19 01:22:36;;;;;;;;;;;;;;;;;;5117992;28;19954;-70
2023/05/19 01:25:02;;;;;;;;;;;;;;;;;;5118184;28;20008;-70
2023/05/19 01:27:28;;;;;;;;;;;;;;;;;;5118227;28;20420;-70
2023/05/19 01:29:54;;;;;;;;;;;;;;;;;;5117874;28;20041;-70
2023/05/19 01:32:20;;;;;;;;;;;;;;;;;;5117522;28;20352;-70
2023/05/19 01:34:46;;;;;;;;;;;;;;;;;;5117783;28;19959;-70
2023/05/19 01:37:12;;;;;;;;;;;;;;;;;;5117421;28;20008;-70
2023/05/19 01:39:38;;;;;;;;;;;;;;;;;;5117332;28;20406;-70
2023/05/19 01:42:04;;;;;;;;;;;;;;;;;;5117334;28;19955;-70
2023/05/19 01:44:30;;;;;;;;;;;;;;;;;;5117575;28;19962;-70
2023/05/19 01:46:55;;;;;;;;;;;;;;;;;;5117539;28;20008;-70
2023/05/19 01:49:21;;;;;;;;;;;;;;;;;;5117275;28;20047;-70
2023/05/19 01:51:47;;;;;;;;;;;;;;;;;;5117723;28;20480;-70
2023/05/19 01:54:13;;;;;;;;;;;;;;;;;;5117144;28;19962;-70
2023/05/19 01:56:40;;;;;;;;;;;;;;;;;;5117640;28;20401;-70
2023/05/19 01:59:06;;;;;;;;;;;;;;;;;;5098454;28;20012;-70
2023/05/19 02:01:32;;;;;;;;;;;;;;;;;;5116925;28;20394;-70
2023/05/19 02:03:58;;;;;;;;;;;;;;;;;;5117222;28;19983;-70
2023/05/19 02:06:23;;;;;;;;;;;;;;;;;;5116916;28;20308;-70
2023/05/19 02:08:49;;;;;;;;;;;;;;;;;;5116885;28;20007;-70
2023/05/19 02:11:15;;;;;;;;;;;;;;;;;;5117076;28;20324;-70
2023/05/19 02:13:41;;;;;;;;;;;;;;;;;;5116777;28;20022;-70
2023/05/19 02:16:07;;;;;;;;;;;;;;;;;;5116554;28;19955;-70
2023/05/19 02:18:35;;;;;;;;;;;;;;;;;;5116226;28;19955;-70
2023/05/19 02:21:01;;;;;;;;;;;;;;;;;;5116553;28;19982;-70
2023/05/19 02:23:27;;;;;;;;;;;;;;;;;;5116833;28;19955;-70
2023/05/19 02:25:53;;;;;;;;;;;;;;;;;;5117085;28;19955;-70
2023/05/19 02:28:19;;;;;;;;;;;;;;;;;;5116487;28;19955;-70
2023/05/19 02:30:45;;;;;;;;;;;;;;;;;;5116390;28;19970;-70
2023/05/19 02:33:11;;;;;;;;;;;;;;;;;;5116382;28;19969;-70
2023/05/19 02:35:37;;;;;;;;;;;;;;;;;;5116342;28;19986;-70
2023/05/19 02:38:03;;;;;;;;;;;;;;;;;;5116829;28;20324;-70
2023/05/19 02:40:29;;;;;;;;;;;;;;;;;;5115929;28;19990;-70
2023/05/19 02:42:54;;;;;;;;;;;;;;;;;;5116186;28;19997;-70
2023/05/19 02:45:20;;;;;;;;;;;;;;;;;;5116442;28;19955;-70
2023/05/19 02:47:46;;;;;;;;;;;;;;;;;;5116094;28;19962;-70
2023/05/19 02:50:12;;;;;;;;;;;;;;;;;;5097744;28;20005;-70
2023/05/19 02:52:38;;;;;;;;;;;;;;;;;;5116049;28;20035;-70
2023/05/19 02:55:04;;;;;;;;;;;;;;;;;;5116247;28;20315;-70
2023/05/19 02:57:30;;;;;;;;;;;;;;;;;;5116180;28;19955;-70
2023/05/19 02:59:56;;;;;;;;;;;;;;;;;;5116338;28;20421;-70
2023/05/19 03:02:22;;;;;;;;;;;;;;;;;;5115782;28;19966;-70
2023/05/19 03:04:48;;;;;;;;;;;;;;;;;;5097405;28;19958;-70
2023/05/19 03:07:15;;;;;;;;;;;;;;;;;;5115744;28;20024;-70
2023/05/19 03:09:41;;;;;;;;;;;;;;;;;;5116334;28;19962;-70
2023/05/19 03:12:07;;;;;;;;;;;;;;;;;;5115910;28;19955;-70
2023/05/19 03:14:33;;;;;;;;;;;;;;;;;;5115576;28;20336;-70
2023/05/19 03:17:00;;;;;;;;;;;;;;;;;;5115529;28;20006;-70
2023/05/19 03:19:26;;;;;;;;;;;;;;;;;;5115736;28;20042;-69
2023/05/19 03:21:52;;;;;;;;;;;;;;;;;;5115390;28;20073;-70
2023/05/19 03:24:18;;;;;;;;;;;;;;;;;;5115935;28;20060;-69
2023/05/19 03:26:44;;;;;;;;;;;;;;;;;;5115589;28;19954;-70
2023/05/19 03:29:10;;;;;;;;;;;;;;;;;;5115182;28;20409;-70
2023/05/19 03:31:36;;;;;;;;;;;;;;;;;;5115159;28;19978;-70
2023/05/19 03:34:02;;;;;;;;;;;;;;;;;;5115206;28;20396;-70
2023/05/19 03:36:38;;;;;;;;;;;;;;;;;;5115116;28;19961;-70
2023/05/19 03:39:04;;;;;;;;;;;;;;;;;;5096452;28;19958;-70
2023/05/19 03:41:30;;;;;;;;;;;;;;;;;;5115266;28;19988;-70
2023/05/19 03:43:56;;;;;;;;;;;;;;;;;;5114995;28;20050;-70
2023/05/19 03:46:22;;;;;;;;;;;;;;;;;;5114990;28;20434;-70
2023/05/19 03:48:48;;;;;;;;;;;;;;;;;;5114926;28;20067;-70
2023/05/19 03:51:13;;;;;;;;;;;;;;;;;;5115100;28;19955;-69
2023/05/19 03:53:40;;;;;;;;;;;;;;;;;;5114828;28;19954;-70
2023/05/19 03:56:06;;;;;;;;;;;;;;;;;;5114755;28;19962;-70
2023/05/19 03:58:32;;;;;;;;;;;;;;;;;;5115115;28;19959;-70
2023/05/19 04:00:58;;;;;;;;;;;;;;;;;;5114589;28;20475;-69
2023/05/19 04:03:27;;;;;;;;;;;;;;;;;;5114694;28;19959;-70
2023/05/19 04:05:53;;;;;;;;;;;;;;;;;;5115234;28;20416;-70
2023/05/19 04:08:19;;;;;;;;;;;;;;;;;;5114573;28;19961;-70
2023/05/19 04:10:44;;;;;;;;;;;;;;;;;;5114828;28;19955;-70
2023/05/19 04:13:10;;;;;;;;;;;;;;;;;;5114785;28;19954;-70
2023/05/19 04:15:36;;;;;;;;;;;;;;;;;;5114475;28;19962;-70
2023/05/19 04:18:02;;;;;;;;;;;;;;;;;;5114699;28;19959;-70
2023/05/19 04:20:28;;;;;;;;;;;;;;;;;;5114553;28;19975;-70
2023/05/19 04:22:54;;;;;;;;;;;;;;;;;;5114895;28;19990;-71
2023/05/19 04:25:20;;;;;;;;;;;;;;;;;;5114826;28;19955;-70
2023/05/19 04:27:47;;;;;;;;;;;;;;;;;;5114305;28;20067;-70
2023/05/19 04:30:16;;;;;;;;;;;;;;;;;;5114802;28;19958;-70
2023/05/19 04:32:41;;;;;;;;;;;;;;;;;;5095868;28;19974;-69
2023/05/19 04:35:07;;;;;;;;;;;;;;;;;;5114176;28;19962;-70
2023/05/19 04:37:36;;;;;;;;;;;;;;;;;;5114416;28;19978;-70
2023/05/19 04:40:04;;;;;;;;;;;;;;;;;;5113355;28;20399;-70
2023/05/19 04:42:31;;;;;;;;;;;;;;;;;;5114638;28;19955;-70
2023/05/19 04:44:57;;;;;;;;;;;;;;;;;;5114395;28;19962;-70
2023/05/19 04:47:26;;;;;;;;;;;;;;;;;;5114354;28;20378;-70
2023/05/19 04:49:54;;;;;;;;;;;;;;;;;;5114067;28;20442;-70
2023/05/19 04:52:21;;;;;;;;;;;;;;;;;;5114076;28;19955;-70
2023/05/19 04:54:47;;;;;;;;;;;;;;;;;;5113950;28;20020;-70
2023/05/19 04:57:13;;;;;;;;;;;;;;;;;;5113918;28;20054;-70
2023/05/19 04:59:39;;;;;;;;;;;;;;;;;;5114161;28;20019;-70
2023/05/19 05:02:05;;;;;;;;;;;;;;;;;;5113900;28;19955;-70
2023/05/19 05:04:31;;;;;;;;;;;;;;;;;;5113886;28;19955;-70
2023/05/19 05:06:57;;;;;;;;;;;;;;;;;;5114175;28;19955;-70
2023/05/19 05:09:23;;;;;;;;;;;;;;;;;;5113859;28;19965;-70
2023/05/19 05:11:50;;;;;;;;;;;;;;;;;;5114093;28;19958;-70
2023/05/19 05:14:16;;;;;;;;;;;;;;;;;;5095494;28;19966;-70
2023/05/19 05:16:42;;;;;;;;;;;;;;;;;;5114063;28;19955;-70
2023/05/19 05:19:08;;;;;;;;;;;;;;;;;;5113732;28;20042;-70
2023/05/19 05:21:33;;;;;;;;;;;;;;;;;;5113668;28;20030;-70
2023/05/19 05:23:59;;;;;;;;;;;;;;;;;;5113689;28;19965;-70
2023/05/19 05:26:27;;;;;;;;;;;;;;;;;;5114257;28;19955;-70
2023/05/19 05:28:53;;;;;;;;;;;;;;;;;;5095339;28;20408;-70
2023/05/19 05:31:19;;;;;;;;;;;;;;;;;;5114111;28;20083;-70
2023/05/19 05:33:45;;;;;;;;;;;;;;;;;;5113925;28;20328;-70
2023/05/19 05:36:12;;;;;;;;;;;;;;;;;;5113581;28;19955;-70
2023/05/19 05:38:38;;;;;;;;;;;;;;;;;;5113580;28;19955;-71
2023/05/19 05:41:04;;;;;;;;;;;;;;;;;;5113054;28;20459;-70
2023/05/19 05:43:30;;;;;;;;;;;;;;;;;;5113549;28;20057;-70
2023/05/19 05:45:56;;;;;;;;;;;;;;;;;;5095232;28;20100;-70
2023/05/19 05:48:21;;;;;;;;;;;;;;;;;;5114031;28;20445;-70
2023/05/19 05:50:47;;;;;;;;;;;;;;;;;;5113766;28;19955;-70
2023/05/19 05:53:13;;;;;;;;;;;;;;;;;;5116151;28;20419;-70
2023/05/19 05:55:39;;;;;;;;;;;;;;;;;;5117421;28;20414;-70
2023/05/19 05:58:05;;;;;;;;;;;;;;;;;;5117696;28;19962;-70
2023/05/19 06:00:32;;;;;;;;;;;;;;;;;;5117054;28;20379;-70
2023/05/19 06:02:58;;;;;;;;;;;;;;;;;;5117072;28;19998;-70
2023/05/19 06:05:23;;;;;;;;;;;;;;;;;;5116980;28;20301;-71
2023/05/19 06:07:50;;;;;;;;;;;;;;;;;;5117220;28;20000;-71
2023/05/19 06:10:15;;;;;;;;;;;;;;;;;;5116887;28;19955;-71
2023/05/19 06:12:42;;;;;;;;;;;;;;;;;;5116840;28;19955;-70
2023/05/19 06:15:07;;;;;;;;;;;;;;;;;;5116791;28;20038;-70
2023/05/19 06:17:36;;;;;;;;;;;;;;;;;;5116985;28;19990;-71
2023/05/19 06:20:04;;;;;;;;;;;;;;;;;;5116599;28;20348;-71
2023/05/19 06:22:30;;;;;;;;;;;;;;;;;;5116665;28;19955;-71
2023/05/19 06:24:56;;;;;;;;;;;;;;;;;;5117407;28;20317;-71
2023/05/19 06:27:22;;;;;;;;;;;;;;;;;;5116528;28;19954;-71
2023/05/19 06:29:48;;;;;;;;;;;;;;;;;;5116759;28;19962;-71
2023/05/19 06:32:13;;;;;;;;;;;;;;;;;;5116336;28;20374;-71
2023/05/19 06:34:39;;;;;;;;;;;;;;;;;;5116424;28;20042;-71
2023/05/19 06:37:06;;;;;;;;;;;;;;;;;;5116333;28;20328;-68
2023/05/19 06:39:32;;;;;;;;;;;;;;;;;;5116123;28;20043;-68
2023/05/19 06:41:58;;;;;;;;;;;;;;;;;;5116113;28;20326;-68
2023/05/19 06:44:24;;;;;;;;;;;;;;;;;;5116501;28;19962;-68
2023/05/19 06:46:50;;;;;;;;;;;;;;;;;;5116151;28;19962;-68
2023/05/19 06:49:16;;;;;;;;;;;;;;;;;;5116109;28;19954;-68
2023/05/19 06:51:42;;;;;;;;;;;;;;;;;;5116063;28;19990;-68
2023/05/19 06:54:09;;;;;;;;;;;;;;;;;;5116274;28;20081;-68
2023/05/19 06:56:35;;;;;;;;;;;;;;;;;;5115942;28;19953;-68
2023/05/19 06:59:01;;;;;;;;;;;;;;;;;;5116180;28;19958;-68
2023/05/19 07:01:28;;;;;;;;;;;;;;;;;;5116074;28;19981;-68
2023/05/19 07:03:54;;;;;;;;;;;;;;;;;;5115487;28;19999;-68
2023/05/19 07:06:20;;;;;;;;;;;;;;;;;;5116075;28;19996;-68
2023/05/19 07:08:46;;;;;;;;;;;;;;;;;;5115736;28;19962;-68
2023/05/19 07:11:12;;;;;;;;;;;;;;;;;;5115915;28;19963;-68
2023/05/19 07:13:38;;;;;;;;;;;;;;;;;;5115862;28;20327;-68
2023/05/19 07:16:04;;;;;;;;;;;;;;;;;;5116093;28;19955;-67
2023/05/19 07:18:30;;;;;;;;;;;;;;;;;;5115455;28;19954;-70
2023/05/19 07:20:57;;;;;;;;;;;;;;;;;;5115691;28;19975;-72
2023/05/19 07:23:23;;;;;;;;;;;;;;;;;;5115396;28;19965;-71
2023/05/19 07:25:48;;;;;;;;;;;;;;;;;;5115878;28;19955;-68
2023/05/19 07:28:15;;;;;;;;;;;;;;;;;;5115354;28;19955;-68
2023/05/19 07:30:40;;;;;;;;;;;;;;;;;;5096902;28;20373;-68
2023/05/19 07:33:07;;;;;;;;;;;;;;;;;;5115551;28;19958;-68
2023/05/19 07:35:33;;;;;;;;;;;;;;;;;;5115157;28;20006;-68
2023/05/19 07:37:59;;;;;;;;;;;;;;;;;;5096680;28;20049;-68
2023/05/19 07:40:25;;;;;;;;;;;;;;;;;;5114838;28;20416;-69
2023/05/19 07:42:51;;;;;;;;;;;;;;;;;;5115072;28;20328;-68
2023/05/19 07:45:17;;;;;;;;;;;;;;;;;;5115003;28;19955;-69
2023/05/19 07:47:43;;;;;;;;;;;;;;;;;;5115286;28;20042;-68
2023/05/19 07:50:09;;;;;;;;;;;;;;;;;;5115218;28;20340;-69
2023/05/19 07:52:35;;;;;;;;;;;;;;;;;;5115487;28;20038;-69
2023/05/19 07:55:01;;;;;;;;;;;;;;;;;;5114863;28;20457;-68
2023/05/19 07:57:27;;;;;;;;;;;;;;;;;;5114692;28;19955;-69
2023/05/19 07:59:53;;;;;;;;;;;;;;;;;;5115055;28;19959;-69
2023/05/19 08:02:19;;;;;;;;;;;;;;;;;;5114681;28;20005;-70
2023/05/19 08:04:44;;;;;;;;;;;;;;;;;;5114738;28;19955;-68
2023/05/19 08:07:10;;;;;;;;;;;;;;;;;;5114597;28;19955;-69
2023/05/19 08:09:36;;;;;;;;;;;;;;;;;;5096931;28;20020;-69
2023/05/19 08:12:03;;;;;;;;;;;;;;;;;;5114761;28;20039;-69
2023/05/19 08:14:30;;;;;;;;;;;;;;;;;;5114207;28;20410;-72
2023/05/19 08:16:55;;;;;;;;;;;;;;;;;;5114217;28;20325;-69
2023/05/19 08:19:21;;;;;;;;;;;;;;;;;;5114553;28;19962;-69
2023/05/19 08:21:48;;;;;;;;;;;;;;;;;;5115042;28;19975;-69
2023/05/19 08:24:14;;;;;;;;;;;;;;;;;;5114339;28;20082;-69
2023/05/19 08:26:40;;;;;;;;;;;;;;;;;;5096569;28;20344;-69
2023/05/19 08:29:06;;;;;;;;;;;;;;;;;;5114280;28;19955;-69
2023/05/19 08:31:32;;;;;;;;;;;;;;;;;;5114107;28;19977;-69
2023/05/19 08:33:58;;;;;;;;;;;;;;;;;;5114367;28;19997;-69
2023/05/19 08:36:24;;;;;;;;;;;;;;;;;;5114441;28;19955;-69
2023/05/19 08:38:50;;;;;;;;;;;;;;;;;;5113839;28;20471;-69
2023/05/19 08:41:16;;;;;;;;;;;;;;;;;;5114570;28;20074;-69
2023/05/19 08:43:42;;;;;;;;;;;;;;;;;;5114255;28;20355;-71
2023/05/19 08:46:08;;;;;;;;;;;;;;;;;;5114554;28;19962;-68
2023/05/19 08:48:34;;;;;;;;;;;;;;;;;;5095796;28;19958;-70
2023/05/19 08:51:00;;;;;;;;;;;;;;;;;;5113965;28;19955;-69
2023/05/19 08:53:26;;;;;;;;;;;;;;;;;;5114414;28;20298;-68
2023/05/19 08:55:53;;;;;;;;;;;;;;;;;;5113997;28;19954;-69
2023/05/19 08:58:20;;;;;;;;;;;;;;;;;;5112778;28;20332;-68
2023/05/19 09:00:46;;;;;;;;;;;;;;;;;;5114043;28;20409;-68
2023/05/19 09:03:14;;;;;;;;;;;;;;;;;;5114474;28;19955;-68
2023/05/19 09:05:40;;;;;;;;;;;;;;;;;;5113896;28;19955;-69
2023/05/19 09:08:06;;;;;;;;;;;;;;;;;;5114093;28;19962;-69
2023/05/19 09:10:32;;;;;;;;;;;;;;;;;;5114123;28;19977;-69
2023/05/19 09:12:58;;;;;;;;;;;;;;;;;;5113823;28;19962;-68
2023/05/19 09:15:23;;;;;;;;;;;;;;;;;;5113821;28;20042;-68
2023/05/19 09:17:49;;;;;;;;;;;;;;;;;;5113884;28;19955;-68
2023/05/19 09:20:15;;;;;;;;;;;;;;;;;;5113912;28;20462;-68
2023/05/19 09:22:41;;;;;;;;;;;;;;;;;;5113990;28;19955;-69
2023/05/19 09:25:08;;;;;;;;;;;;;;;;;;5113926;28;19961;-69
2023/05/19 09:27:34;;;;;;;;;;;;;;;;;;5116898;28;19955;-68
2023/05/19 09:30:00;;;;;;;;;;;;;;;;;;5117562;28;20420;-68
2023/05/19 09:32:26;;;;;;;;;;;;;;;;;;5117489;28;19977;-68
2023/05/19 09:34:52;;;;;;;;;;;;;;;;;;5117399;28;20411;-68
2023/05/19 09:37:19;;;;;;;;;;;;;;;;;;5117566;28;20063;-68
2023/05/19 09:39:48;;;;;;;;;;;;;;;;;;5098851;28;20088;-72
2023/05/19 09:42:13;;;;;;;;;;;;;;;;;;5099060;28;20420;-74
2023/05/19 09:44:40;;;;;;;;;;;;;;;;;;5117551;28;19955;-70
2023/05/19 09:47:06;;;;;;;;;;;;;;;;;;5116969;28;19955;-72
2023/05/19 09:49:32;;;;;;;;;;;;;;;;;;5116837;28;20004;-74
2023/05/19 09:51:57;;;;;;;;;;;;;;;;;;5117278;28;19955;-71
2023/05/19 09:54:23;;;;;;;;;;;;;;;;;;5117002;28;19962;-74
2023/05/19 09:56:49;;;;;;;;;;;;;;;;;;5116960;28;19959;-71
2023/05/19 09:59:15;;;;;;;;;;;;;;;;;;5117423;28;19955;-75
2023/05/19 10:01:45;;;;;;;;;;;;;;;;;;5116985;28;20462;-68
2023/05/19 10:04:11;;;;;;;;;;;;;;;;;;5116959;28;20314;-67
2023/05/19 10:06:37;;;;;;;;;;;;;;;;;;5116837;28;19962;-67
2023/05/19 10:09:03;;;;;;;;;;;;;;;;;;5117031;28;19967;-67
2023/05/19 10:11:28;;;;;;;;;;;;;;;;;;5116855;28;19978;-68
2023/05/19 10:13:54;;;;;;;;;;;;;;;;;;5117115;28;20038;-67
2023/05/19 10:16:21;;;;;;;;;;;;;;;;;;5117190;28;20408;-67
2023/05/19 10:18:46;;;;;;;;;;;;;;;;;;5098275;28;19959;-73
2023/05/19 10:21:12;;;;;;;;;;;;;;;;;;5115888;28;20070;-73
2023/05/19 10:23:38;;;;;;;;;;;;;;;;;;5114610;28;20465;-72
2023/05/19 10:26:05;;;;;;;;;;;;;;;;;;5114805;28;20459;-74
2023/05/19 10:28:31;;;;;;;;;;;;;;;;;;5096245;28;20439;-73
2023/05/19 10:30:57;;;;;;;;;;;;;;;;;;5114674;28;19971;-73
2023/05/19 10:33:23;;;;;;;;;;;;;;;;;;5114375;28;19966;-73
2023/05/19 10:35:48;;;;;;;;;;;;;;;;;;5114439;28;20092;-73
2023/05/19 10:38:15;;;;;;;;;;;;;;;;;;5114810;28;19962;-73
2023/05/19 10:40:40;;;;;;;;;;;;;;;;;;5097288;28;20483;-74
2023/05/19 10:43:06;;;;;;;;;;;;;;;;;;5116771;28;19955;-74
2023/05/19 10:45:32;;;;;;;;;;;;;;;;;;5116211;28;19965;-73
2023/05/19 10:47:58;;;;;;;;;;;;;;;;;;5116720;28;19955;-72
2023/05/19 10:50:24;;;;;;;;;;;;;;;;;;5116418;28;19955;-72
2023/05/19 10:52:50;;;;;;;;;;;;;;;;;;5116656;28;19955;-73
2023/05/19 10:55:16;;;;;;;;;;;;;;;;;;5116276;28;20016;-72
2023/05/19 10:57:42;;;;;;;;;;;;;;;;;;5116259;28;19955;-72
2023/05/19 11:00:10;;;;;;;;;;;;;;;;;;5116123;28;20404;-73
2023/05/19 11:02:36;;;;;;;;;;;;;;;;;;5116488;28;20401;-73
2023/05/19 11:05:03;;;;;;;;;;;;;;;;;;5115869;28;19999;-72
2023/05/19 11:07:29;;;;;;;;;;;;;;;;;;5097482;28;19959;-73
2023/05/19 11:09:55;;;;;;;;;;;;;;;;;;5116331;28;19955;-73
2023/05/19 11:12:23;;;;;;;;;;;;;;;;;;5115693;28;19961;-72
2023/05/19 11:14:49;;;;;;;;;;;;;;;;;;5116221;28;20044;-72
2023/05/19 11:17:15;;;;;;;;;;;;;;;;;;5115564;28;20002;-74
2023/05/19 11:19:42;;;;;;;;;;;;;;;;;;5115547;28;19954;-72
2023/05/19 11:22:07;;;;;;;;;;;;;;;;;;5115693;28;19975;-73
2023/05/19 11:24:34;;;;;;;;;;;;;;;;;;5115429;28;19961;-73
2023/05/19 11:27:00;;;;;;;;;;;;;;;;;;5116020;28;20037;-73
2023/05/19 11:29:26;;;;;;;;;;;;;;;;;;5115377;28;20391;-72
2023/05/19 11:31:52;;;;;;;;;;;;;;;;;;5115834;28;20161;-72
2023/05/19 11:34:18;;;;;;;;;;;;;;;;;;5115259;28;20313;-72
2023/05/19 11:36:44;;;;;;;;;;;;;;;;;;5115245;28;19962;-72
2023/05/19 11:39:10;;;;;;;;;;;;;;;;;;5115225;28;20081;-73
2023/05/19 11:41:36;;;;;;;;;;;;;;;;;;5096816;28;20018;-73
2023/05/19 11:44:02;;;;;;;;;;;;;;;;;;5115337;28;20016;-72
2023/05/19 11:46:28;;;;;;;;;;;;;;;;;;5115057;28;19955;-72
2023/05/19 11:48:54;;;;;;;;;;;;;;;;;;5096477;28;19958;-73
2023/05/19 11:51:20;;;;;;;;;;;;;;;;;;5114719;28;19962;-72
2023/05/19 11:53:46;;;;;;;;;;;;;;;;;;5115129;28;20053;-72
2023/05/19 11:56:12;;;;;;;;;;;;;;;;;;5115408;28;19955;-71
2023/05/19 11:58:37;;;;;;;;;;;;;;;;;;5115089;28;19978;-71
2023/05/19 12:01:03;;;;;;;;;;;;;;;;;;5114727;28;20014;-71
2023/05/19 12:03:31;;;;;;;;;;;;;;;;;;5115269;28;20312;-73
2023/05/19 12:05:57;;;;;;;;;;;;;;;;;;5114658;28;20015;-72
2023/05/19 12:08:23;;;;;;;;;;;;;;;;;;5115197;28;20408;-72
2023/05/19 12:10:49;;;;;;;;;;;;;;;;;;5114856;28;19955;-72
2023/05/19 12:13:15;;;;;;;;;;;;;;;;;;5114535;28;20435;-73
2023/05/19 12:15:41;;;;;;;;;;;;;;;;;;5115117;28;19955;-73
2023/05/19 12:18:07;;;;;;;;;;;;;;;;;;5114334;28;19962;-74
2023/05/19 12:20:34;;;;;;;;;;;;;;;;;;5114939;28;20340;-73
2023/05/19 12:23:00;;;;;;;;;;;;;;;;;;5114695;28;19964;-72
2023/05/19 12:25:26;;;;;;;;;;;;;;;;;;5115400;28;19955;-73
2023/05/19 12:27:54;;;;;;;;;;;;;;;;;;5114100;28;19955;-73
2023/05/19 12:30:20;;;;;;;;;;;;;;;;;;5113545;28;20050;-72
2023/05/19 12:32:47;;;;;;;;;;;;;;;;;;5113285;28;20070;-72
2023/05/19 12:35:14;;;;;;;;;;;;;;;;;;5113554;28;19966;-72
2023/05/19 12:37:40;;;;;;;;;;;;;;;;;;5113750;28;19955;-73
2023/05/19 12:40:05;;;;;;;;;;;;;;;;;;5113477;28;20013;-73
2023/05/19 12:42:32;;;;;;;;;;;;;;;;;;5113973;28;19955;-73
2023/05/19 12:44:58;;;;;;;;;;;;;;;;;;5114363;28;20435;-72
2023/05/19 12:47:24;;;;;;;;;;;;;;;;;;5114057;28;19955;-73
2023/05/19 12:49:50;;;;;;;;;;;;;;;;;;5095608;28;20007;-73
2023/05/19 12:52:16;;;;;;;;;;;;;;;;;;5114332;28;20007;-72
2023/05/19 12:54:42;;;;;;;;;;;;;;;;;;5114051;28;19955;-73
2023/05/19 12:57:08;;;;;;;;;;;;;;;;;;5113966;28;19962;-72
2023/05/19 12:59:34;;;;;;;;;;;;;;;;;;5113987;28;19958;-72
2023/05/19 13:02:01;;;;;;;;;;;;;;;;;;5116865;28;20017;-72
2023/05/19 13:04:27;;;;;;;;;;;;;;;;;;5118162;28;19987;-71
2023/05/19 13:06:53;;;;;;;;;;;;;;;;;;5118148;28;20352;-72
2023/05/19 13:09:19;;;;;;;;;;;;;;;;;;5118724;28;19955;-73
2023/05/19 13:11:47;;;;;;;;;;;;;;;;;;5118067;28;20340;-72
2023/05/19 13:14:14;;;;;;;;;;;;;;;;;;5118538;28;20371;-72
2023/05/19 13:16:41;;;;;;;;;;;;;;;;;;5117927;28;20061;-71
2023/05/19 13:19:08;;;;;;;;;;;;;;;;;;5118212;28;19955;-72
2023/05/19 13:21:34;;;;;;;;;;;;;;;;;;5117619;28;19978;-72
2023/05/19 13:24:00;;;;;;;;;;;;;;;;;;5117729;28;20332;-72
2023/05/19 13:26:26;;;;;;;;;;;;;;;;;;5118609;28;19955;-71
2023/05/19 13:28:52;;;;;;;;;;;;;;;;;;5118514;28;19962;-71
2023/05/19 13:31:18;;;;;;;;;;;;;;;;;;5117105;28;19977;-72
2023/05/19 13:33:44;;;;;;;;;;;;;;;;;;5115566;28;20004;-72
2023/05/19 13:36:10;;;;;;;;;;;;;;;;;;5115736;28;19954;-71
2023/05/19 13:38:36;;;;;;;;;;;;;;;;;;5116388;28;20317;-70
2023/05/19 13:41:02;;;;;;;;;;;;;;;;;;5115791;28;19991;-72
2023/05/19 13:43:28;;;;;;;;;;;;;;;;;;5116328;28;19955;-71
2023/05/19 13:45:53;;;;;;;;;;;;;;;;;;5117461;28;20050;-71
2023/05/19 13:48:19;;;;;;;;;;;;;;;;;;5117672;28;19991;-71
2023/05/19 13:50:45;;;;;;;;;;;;;;;;;;5098877;28;20049;-71
2023/05/19 13:53:11;;;;;;;;;;;;;;;;;;5117416;28;19962;-71
2023/05/19 13:55:37;;;;;;;;;;;;;;;;;;5117677;28;19955;-72
2023/05/19 13:58:03;;;;;;;;;;;;;;;;;;5117032;28;19973;-71
2023/05/19 14:00:30;;;;;;;;;;;;;;;;;;5117331;28;20108;-72
2023/05/19 14:02:56;;;;;;;;;;;;;;;;;;5116677;28;20045;-72
2023/05/19 14:05:22;;;;;;;;;;;;;;;;;;5115769;28;19990;-72
2023/05/19 14:07:48;;;;;;;;;;;;;;;;;;5096500;28;19959;-72
2023/05/19 14:10:13;;;;;;;;;;;;;;;;;;5116283;28;20011;-72
2023/05/19 14:12:40;;;;;;;;;;;;;;;;;;5115192;28;20305;-72
2023/05/19 14:15:06;;;;;;;;;;;;;;;;;;5116486;28;19955;-71
2023/05/19 14:17:32;;;;;;;;;;;;;;;;;;5116696;28;20004;-72
2023/05/19 14:19:58;;;;;;;;;;;;;;;;;;5117344;28;19955;-72
2023/05/19 14:22:23;;;;;;;;;;;;;;;;;;5116725;28;20053;-71
2023/05/19 14:24:49;;;;;;;;;;;;;;;;;;5116644;28;20366;-71
2023/05/19 14:27:15;;;;;;;;;;;;;;;;;;5117159;28;19955;-71
2023/05/19 14:29:41;;;;;;;;;;;;;;;;;;5116876;28;19954;-71
2023/05/19 14:32:07;;;;;;;;;;;;;;;;;;5116428;28;20019;-71
2023/05/19 14:34:34;;;;;;;;;;;;;;;;;;5116791;28;20057;-71
2023/05/19 14:37:00;;;;;;;;;;;;;;;;;;5116640;28;19960;-71
2023/05/19 14:39:26;;;;;;;;;;;;;;;;;;5116167;28;20075;-72
2023/05/19 14:41:52;;;;;;;;;;;;;;;;;;5116611;28;20020;-71
2023/05/19 14:44:18;;;;;;;;;;;;;;;;;;5116499;28;20438;-70
2023/05/19 14:46:43;;;;;;;;;;;;;;;;;;5116219;28;20049;-71
2023/05/19 14:49:10;;;;;;;;;;;;;;;;;;5116478;28;19954;-72
2023/05/19 14:51:36;;;;;;;;;;;;;;;;;;5116157;28;20402;-72
2023/05/19 14:54:02;;;;;;;;;;;;;;;;;;5116644;28;20009;-71
2023/05/19 14:56:28;;;;;;;;;;;;;;;;;;5116069;28;19969;-72
2023/05/19 14:58:54;;;;;;;;;;;;;;;;;;5116009;28;19954;-72
2023/05/19 15:01:20;;;;;;;;;;;;;;;;;;5115833;28;19974;-72
2023/05/19 15:03:45;;;;;;;;;;;;;;;;;;5115836;28;20008;-71
2023/05/19 15:06:11;;;;;;;;;;;;;;;;;;5116090;28;19958;-71
2023/05/19 15:08:39;;;;;;;;;;;;;;;;;;5116072;28;19955;-72
2023/05/19 15:11:05;;;;;;;;;;;;;;;;;;5115775;28;19954;-72
2023/05/19 15:13:31;;;;;;;;;;;;;;;;;;5116257;28;19955;-71
2023/05/19 15:15:58;;;;;;;;;;;;;;;;;;5115943;28;20054;-72
2023/05/19 15:18:24;;;;;;;;;;;;;;;;;;5115870;28;19962;-71
2023/05/19 15:20:50;;;;;;;;;;;;;;;;;;5115498;28;19981;-71
2023/05/19 15:23:16;;;;;;;;;;;;;;;;;;5115806;28;20038;-70
2023/05/19 15:25:44;;;;;;;;;;;;;;;;;;5115173;28;19954;-71
2023/05/19 15:28:11;;;;;;;;;;;;;;;;;;5115668;28;19959;-71
2023/05/19 15:30:37;;;;;;;;;;;;;;;;;;5115669;28;20405;-71
2023/05/19 15:33:03;;;;;;;;;;;;;;;;;;5115320;28;19970;-71
2023/05/19 15:35:29;;;;;;;;;;;;;;;;;;5114398;28;20004;-71
2023/05/19 15:37:54;;;;;;;;;;;;;;;;;;5113890;28;20015;-70
2023/05/19 15:40:20;;;;;;;;;;;;;;;;;;5114067;28;20460;-70
2023/05/19 15:42:46;;;;;;;;;;;;;;;;;;5114486;28;19962;-71
2023/05/19 15:45:12;;;;;;;;;;;;;;;;;;5114378;28;20003;-71
2023/05/19 15:47:38;;;;;;;;;;;;;;;;;;5114156;28;19958;-71
2023/05/19 15:50:04;;;;;;;;;;;;;;;;;;5114281;28;19955;-68
2023/05/19 15:52:30;;;;;;;;;;;;;;;;;;5114152;28;19955;-71
2023/05/19 15:54:57;;;;;;;;;;;;;;;;;;5114807;28;19962;-70
2023/05/19 15:57:23;;;;;;;;;;;;;;;;;;5114591;28;19965;-70
2023/05/19 15:59:49;;;;;;;;;;;;;;;;;;5114501;28;19958;-70
2023/05/19 16:02:15;;;;;;;;;;;;;;;;;;5114397;28;19998;-70
2023/05/19 16:04:41;;;;;;;;;;;;;;;;;;5112680;28;20008;-70
2023/05/19 16:07:07;;;;;;;;;;;;;;;;;;5111990;28;20002;-70
2023/05/19 16:09:33;;;;;;;;;;;;;;;;;;5112943;28;19958;-70
2023/05/19 16:11:59;;;;;;;;;;;;;;;;;;5113296;28;19955;-71
2023/05/19 16:14:28;;;;;;;;;;;;;;;;;;5113461;28;19955;-70
2023/05/19 16:16:54;;;;;;;;;;;;;;;;;;5095406;28;19963;-71
2023/05/19 16:19:20;;;;;;;;;;;;;;;;;;5114141;28;19955;-71
2023/05/19 16:21:45;;;;;;;;;;;;;;;;;;5114324;28;20023;-71
2023/05/19 16:24:11;;;;;;;;;;;;;;;;;;5114696;28;19955;-70
2023/05/19 16:26:37;;;;;;;;;;;;;;;;;;5114889;28;19955;-70
2023/05/19 16:29:03;;;;;;;;;;;;;;;;;;5114201;28;19958;-70
2023/05/19 16:31:29;;;;;;;;;;;;;;;;;;5095522;28;20360;-71
2023/05/19 16:33:55;;;;;;;;;;;;;;;;;;5112795;28;19962;-70
2023/05/19 16:36:21;;;;;;;;;;;;;;;;;;5112241;28;19963;-70
2023/05/19 16:38:47;;;;;;;;;;;;;;;;;;5113940;28;20424;-71